首页
METAR-TAF:

METAR-TAF

机场 :

Menominee-Marinette Twin County Airport

Menominee, 密歇根州, 美国

纬度: 45-08N, 经度: 087-38W, 海拔: 191米

当前天气观测

该预报发布于56分钟前的06:56 UTC
风速4节,风向多变
温度 -8°C
湿度 79%
气压 1009 hPa
能見度: 14.5公里
少量云层高于2200英尺
阴天层高于3500英尺

METAR: KMNM 100656Z AUTO VRB04KT 9SM FEW022 OVC035 M08/M11 A2979 RMK AO2 SNE54 SLP096 P0000 T10831111 FZRANO $

时间: 02:52 (07:52 UTC)


TAF: 丢失

超过4000个机场的气象观测和天气预报(METAR&TAF报告)。

可查询的气象台以黄色和红色小点在地图上表示。

将鼠标移到小点上方,可查看气象台名称。

然后点击查看天气观测和预报。

如需切换地图:点击带黑十字的绿色按钮放大地图;点击带横线的绿色按钮缩小地图;或者点击绿色箭头查看邻近地区的地图。


METAR-TAF: